Monroe, New Hampshire
Current Conditions -  °F | °C
As of 9:51 PM on Tuesday 21 Oct 2014 (Local Time) from KMPV Reporting Station
Overcast Overcast  
Wind Chill: 45°   Ceiling: 800
Heat Index: 45°   Visibility: 9mi
Dew Point: 45°   Wind: 3mph
Humidity: 100%   Direction: 330°NNW
Pressure: 30.1"   Gusts: NA
Location:  44.26°N, 72.06°W
Report Text: KMPV 220151Z AUTO 33003KT 9SM FEW003 OVC008 07/07 A3010 RMK AO2 RAE08 SLP201 P0000 T00720072
Loading
Personal Weather Stations






























Interactive Weather Map
Tropical Storm Tracking
New forecast layout! Learn more

10-Day Weather Forecast

Advertisements
Track Severe Weather on mobile